sensor_id;sensor_type;location;lat;lon;timestamp;temperature;humidity
66582;SHT31;53438;48.898;2.308;2022-12-07T00:01:25;3.40;84.32
66582;SHT31;53438;48.898;2.308;2022-12-07T00:03:53;3.33;84.40
66582;SHT31;53438;48.898;2.308;2022-12-07T00:06:20;3.43;84.45
66582;SHT31;53438;48.898;2.308;2022-12-07T00:08:46;3.50;84.13
66582;SHT31;53438;48.898;2.308;2022-12-07T00:11:17;3.26;84.42
66582;SHT31;53438;48.898;2.308;2022-12-07T00:13:44;3.42;84.41
66582;SHT31;53438;48.898;2.308;2022-12-07T00:16:20;3.53;84.05
66582;SHT31;53438;48.898;2.308;2022-12-07T00:18:46;3.40;83.92
66582;SHT31;53438;48.898;2.308;2022-12-07T00:21:38;3.42;84.17
66582;SHT31;53438;48.898;2.308;2022-12-07T00:24:04;3.49;83.96
66582;SHT31;53438;48.898;2.308;2022-12-07T00:26:32;3.47;83.76
66582;SHT31;53438;48.898;2.308;2022-12-07T00:29:00;3.59;83.40
66582;SHT31;53438;48.898;2.308;2022-12-07T00:31:32;3.40;83.87
66582;SHT31;53438;48.898;2.308;2022-12-07T00:33:58;3.56;83.63
66582;SHT31;53438;48.898;2.308;2022-12-07T00:36:24;3.60;83.13
66582;SHT31;53438;48.898;2.308;2022-12-07T00:38:50;3.20;84.19
66582;SHT31;53438;48.898;2.308;2022-12-07T00:41:18;3.06;84.61
66582;SHT31;53438;48.898;2.308;2022-12-07T00:43:45;3.04;85.16
66582;SHT31;53438;48.898;2.308;2022-12-07T00:46:11;2.99;85.00
66582;SHT31;53438;48.898;2.308;2022-12-07T00:48:37;3.09;85.08
66582;SHT31;53438;48.898;2.308;2022-12-07T00:51:03;3.08;85.12
66582;SHT31;53438;48.898;2.308;2022-12-07T00:53:29;3.22;84.78
66582;SHT31;53438;48.898;2.308;2022-12-07T00:55:55;3.35;84.50
66582;SHT31;53438;48.898;2.308;2022-12-07T00:58:21;3.33;84.38
66582;SHT31;53438;48.898;2.308;2022-12-07T04:02:27;2.01;87.72
66582;SHT31;53438;48.898;2.308;2022-12-07T04:04:52;1.98;87.51
66582;SHT31;53438;48.898;2.308;2022-12-07T04:07:18;1.85;87.86
66582;SHT31;53438;48.898;2.308;2022-12-07T04:09:44;2.03;88.01
66582;SHT31;53438;48.898;2.308;2022-12-07T04:12:09;2.20;87.73
66582;SHT31;53438;48.898;2.308;2022-12-07T04:14:34;2.25;87.29
66582;SHT31;53438;48.898;2.308;2022-12-07T04:17:00;2.02;86.95
66582;SHT31;53438;48.898;2.308;2022-12-07T04:19:28;2.05;86.81
66582;SHT31;53438;48.898;2.308;2022-12-07T04:21:54;1.95;87.53
66582;SHT31;53438;48.898;2.308;2022-12-07T04:24:20;2.02;87.55
66582;SHT31;53438;48.898;2.308;2022-12-07T04:26:46;2.05;87.33
66582;SHT31;53438;48.898;2.308;2022-12-07T04:29:12;1.75;88.03
66582;SHT31;53438;48.898;2.308;2022-12-07T04:31:38;1.98;87.96
66582;SHT31;53438;48.898;2.308;2022-12-07T04:34:04;1.94;87.50
66582;SHT31;53438;48.898;2.308;2022-12-07T04:36:30;1.92;87.55
66582;SHT31;53438;48.898;2.308;2022-12-07T04:38:56;1.99;87.52
66582;SHT31;53438;48.898;2.308;2022-12-07T04:41:22;2.13;87.52
66582;SHT31;53438;48.898;2.308;2022-12-07T04:43:53;2.37;87.44
66582;SHT31;53438;48.898;2.308;2022-12-07T04:46:19;2.50;86.88
66582;SHT31;53438;48.898;2.308;2022-12-07T04:48:45;2.43;85.80
66582;SHT31;53438;48.898;2.308;2022-12-07T04:51:10;2.34;86.06
66582;SHT31;53438;48.898;2.308;2022-12-07T04:53:35;2.40;85.91
66582;SHT31;53438;48.898;2.308;2022-12-07T04:56:01;2.51;85.78
66582;SHT31;53438;48.898;2.308;2022-12-07T04:58:26;2.48;85.24
66582;SHT31;53438;48.898;2.308;2022-12-07T05:00:54;2.40;85.44
66582;SHT31;53438;48.898;2.308;2022-12-07T05:03:20;2.43;85.23
66582;SHT31;53438;48.898;2.308;2022-12-07T05:05:45;2.41;85.12
66582;SHT31;53438;48.898;2.308;2022-12-07T05:08:11;2.57;85.12
66582;SHT31;53438;48.898;2.308;2022-12-07T05:10:36;2.68;84.83
66582;SHT31;53438;48.898;2.308;2022-12-07T05:13:01;2.71;84.51
66582;SHT31;53438;48.898;2.308;2022-12-07T05:15:27;2.48;84.49
66582;SHT31;53438;48.898;2.308;2022-12-07T05:17:52;2.62;84.56
66582;SHT31;53438;48.898;2.308;2022-12-07T05:20:17;2.65;84.38
66582;SHT31;53438;48.898;2.308;2022-12-07T05:22:43;2.46;84.59
66582;SHT31;53438;48.898;2.308;2022-12-07T05:25:09;2.29;84.99
66582;SHT31;53438;48.898;2.308;2022-12-07T05:27:34;2.32;85.34
66582;SHT31;53438;48.898;2.308;2022-12-07T05:29:59;2.50;85.13
66582;SHT31;53438;48.898;2.308;2022-12-07T05:32:25;2.48;84.52
66582;SHT31;53438;48.898;2.308;2022-12-07T05:34:50;2.27;84.86
66582;SHT31;53438;48.898;2.308;2022-12-07T05:37:15;2.38;85.08
66582;SHT31;53438;48.898;2.308;2022-12-07T05:39:41;2.53;84.81
66582;SHT31;53438;48.898;2.308;2022-12-07T05:42:10;2.68;84.62
66582;SHT31;53438;48.898;2.308;2022-12-07T05:44:43;2.73;84.29
66582;SHT31;53438;48.898;2.308;2022-12-07T05:47:09;2.70;84.08
66582;SHT31;53438;48.898;2.308;2022-12-07T05:49:34;2.53;84.73
66582;SHT31;53438;48.898;2.308;2022-12-07T05:52:00;2.73;84.43
66582;SHT31;53438;48.898;2.308;2022-12-07T05:54:25;2.67;84.72
66582;SHT31;53438;48.898;2.308;2022-12-07T05:56:51;2.51;84.78
66582;SHT31;53438;48.898;2.308;2022-12-07T05:59:16;2.65;84.79
66582;SHT31;53438;48.898;2.308;2022-12-07T06:02:02;2.74;84.42
66582;SHT31;53438;48.898;2.308;2022-12-07T06:04:31;2.58;84.38
66582;SHT31;53438;48.898;2.308;2022-12-07T06:06:57;2.30;84.91
66582;SHT31;53438;48.898;2.308;2022-12-07T06:09:24;2.33;85.46
66582;SHT31;53438;48.898;2.308;2022-12-07T06:11:50;2.48;85.14
66582;SHT31;53438;48.898;2.308;2022-12-07T06:14:34;2.54;84.75
66582;SHT31;53438;48.898;2.308;2022-12-07T06:17:00;2.62;84.52
66582;SHT31;53438;48.898;2.308;2022-12-07T06:19:25;2.58;84.68
66582;SHT31;53438;48.898;2.308;2022-12-07T06:21:51;2.44;84.92
66582;SHT31;53438;48.898;2.308;2022-12-07T06:24:17;2.58;84.73
66582;SHT31;53438;48.898;2.308;2022-12-07T06:26:43;2.74;84.49
66582;SHT31;53438;48.898;2.308;2022-12-07T06:29:09;2.81;84.14
66582;SHT31;53438;48.898;2.308;2022-12-07T06:31:35;2.92;84.03
66582;SHT31;53438;48.898;2.308;2022-12-07T06:34:09;2.89;83.88
66582;SHT31;53438;48.898;2.308;2022-12-07T06:36:35;2.92;83.73
66582;SHT31;53438;48.898;2.308;2022-12-07T06:39:02;3.04;83.61
66582;SHT31;53438;48.898;2.308;2022-12-07T06:41:28;2.99;83.32
66582;SHT31;53438;48.898;2.308;2022-12-07T06:43:53;2.92;83.93
66582;SHT31;53438;48.898;2.308;2022-12-07T06:46:19;2.87;84.27
66582;SHT31;53438;48.898;2.308;2022-12-07T06:48:45;2.92;84.25
66582;SHT31;53438;48.898;2.308;2022-12-07T06:51:10;2.94;84.26
66582;SHT31;53438;48.898;2.308;2022-12-07T06:53:36;2.98;84.63
66582;SHT31;53438;48.898;2.308;2022-12-07T06:56:03;3.08;84.59
66582;SHT31;53438;48.898;2.308;2022-12-07T06:58:28;2.98;84.63
66582;SHT31;53438;48.898;2.308;2022-12-07T07:00:53;3.01;84.70
66582;SHT31;53438;48.898;2.308;2022-12-07T07:03:20;3.05;84.46
66582;SHT31;53438;48.898;2.308;2022-12-07T07:05:45;3.20;84.32
66582;SHT31;53438;48.898;2.308;2022-12-07T07:08:11;3.25;84.17
66582;SHT31;53438;48.898;2.308;2022-12-07T07:10:37;3.32;84.11
66582;SHT31;53438;48.898;2.308;2022-12-07T07:13:03;3.25;84.04
66582;SHT31;53438;48.898;2.308;2022-12-07T07:15:29;3.29;84.00
66582;SHT31;53438;48.898;2.308;2022-12-07T07:17:54;3.40;83.94
66582;SHT31;53438;48.898;2.308;2022-12-07T07:20:20;3.49;83.75
66582;SHT31;53438;48.898;2.308;2022-12-07T07:22:45;3.59;83.58
66582;SHT31;53438;48.898;2.308;2022-12-07T07:25:11;3.40;83.65
66582;SHT31;53438;48.898;2.308;2022-12-07T07:27:36;3.43;83.76
66582;SHT31;53438;48.898;2.308;2022-12-07T07:30:03;3.32;83.64
66582;SHT31;53438;48.898;2.308;2022-12-07T07:32:28;3.20;84.23
66582;SHT31;53438;48.898;2.308;2022-12-07T07:34:53;3.26;84.11
66582;SHT31;53438;48.898;2.308;2022-12-07T07:37:19;3.13;84.16
66582;SHT31;53438;48.898;2.308;2022-12-07T07:39:44;3.18;84.30
66582;SHT31;53438;48.898;2.308;2022-12-07T07:42:09;3.16;84.25
66582;SHT31;53438;48.898;2.308;2022-12-07T07:44:35;3.13;84.19
66582;SHT31;53438;48.898;2.308;2022-12-07T07:47:00;3.08;84.25
66582;SHT31;53438;48.898;2.308;2022-12-07T07:49:27;3.12;84.32
66582;SHT31;53438;48.898;2.308;2022-12-07T07:51:52;3.15;84.38
66582;SHT31;53438;48.898;2.308;2022-12-07T07:54:18;3.08;84.26
66582;SHT31;53438;48.898;2.308;2022-12-07T07:56:43;3.18;84.40
66582;SHT31;53438;48.898;2.308;2022-12-07T07:59:08;3.33;84.56
66582;SHT31;53438;48.898;2.308;2022-12-07T08:01:35;3.26;84.13
66582;SHT31;53438;48.898;2.308;2022-12-07T08:04:02;3.20;84.21
66582;SHT31;53438;48.898;2.308;2022-12-07T08:06:27;3.23;84.13
66582;SHT31;53438;48.898;2.308;2022-12-07T08:08:52;3.25;84.36
66582;SHT31;53438;48.898;2.308;2022-12-07T08:11:19;3.19;84.07
66582;SHT31;53438;48.898;2.308;2022-12-07T08:13:46;3.08;84.27
66582;SHT31;53438;48.898;2.308;2022-12-07T08:16:14;3.20;84.36
66582;SHT31;53438;48.898;2.308;2022-12-07T08:18:41;3.32;84.12
66582;SHT31;53438;48.898;2.308;2022-12-07T08:21:09;3.29;84.03
66582;SHT31;53438;48.898;2.308;2022-12-07T08:23:35;3.39;83.66
66582;SHT31;53438;48.898;2.308;2022-12-07T08:26:06;3.18;83.60
66582;SHT31;53438;48.898;2.308;2022-12-07T08:28:31;3.12;84.19
66582;SHT31;53438;48.898;2.308;2022-12-07T08:31:07;3.25;84.19
66582;SHT31;53438;48.898;2.308;2022-12-07T08:33:35;3.16;83.88
66582;SHT31;53438;48.898;2.308;2022-12-07T08:36:05;3.23;84.25
66582;SHT31;53438;48.898;2.308;2022-12-07T08:38:31;3.09;84.00
66582;SHT31;53438;48.898;2.308;2022-12-07T08:40:57;3.18;84.10
66582;SHT31;53438;48.898;2.308;2022-12-07T08:43:24;3.19;83.99
66582;SHT31;53438;48.898;2.308;2022-12-07T08:46:35;3.23;84.10
66582;SHT31;53438;48.898;2.308;2022-12-07T08:49:13;3.29;84.03
66582;SHT31;53438;48.898;2.308;2022-12-07T08:51:40;3.37;84.00
66582;SHT31;53438;48.898;2.308;2022-12-07T08:54:08;3.32;83.84
66582;SHT31;53438;48.898;2.308;2022-12-07T08:56:34;3.49;83.84
66582;SHT31;53438;48.898;2.308;2022-12-07T08:59:01;3.60;83.63
66582;SHT31;53438;48.898;2.308;2022-12-07T09:01:28;3.53;83.38
66582;SHT31;53438;48.898;2.308;2022-12-07T09:03:55;3.60;83.30
66582;SHT31;53438;48.898;2.308;2022-12-07T09:06:20;3.60;83.18
66582;SHT31;53438;48.898;2.308;2022-12-07T09:08:50;3.59;83.44
66582;SHT31;53438;48.898;2.308;2022-12-07T09:11:16;3.56;83.52
66582;SHT31;53438;48.898;2.308;2022-12-07T09:13:41;3.63;83.41
66582;SHT31;53438;48.898;2.308;2022-12-07T09:16:07;3.60;83.47
66582;SHT31;53438;48.898;2.308;2022-12-07T09:18:32;3.60;83.50
66582;SHT31;53438;48.898;2.308;2022-12-07T09:20:58;3.57;83.43
66582;SHT31;53438;48.898;2.308;2022-12-07T09:23:23;3.71;83.34
66582;SHT31;53438;48.898;2.308;2022-12-07T09:25:49;3.63;83.32
66582;SHT31;53438;48.898;2.308;2022-12-07T09:28:14;3.69;83.47
66582;SHT31;53438;48.898;2.308;2022-12-07T09:30:45;3.83;83.71
66582;SHT31;53438;48.898;2.308;2022-12-07T09:33:11;3.86;83.34
66582;SHT31;53438;48.898;2.308;2022-12-07T09:35:36;3.93;83.09
66582;SHT31;53438;48.898;2.308;2022-12-07T09:38:01;4.02;83.12
66582;SHT31;53438;48.898;2.308;2022-12-07T09:40:27;4.15;83.01
66582;SHT31;53438;48.898;2.308;2022-12-07T09:42:54;4.02;83.35
66582;SHT31;53438;48.898;2.308;2022-12-07T09:45:22;4.02;83.22
66582;SHT31;53438;48.898;2.308;2022-12-07T09:47:48;4.17;83.36
66582;SHT31;53438;48.898;2.308;2022-12-07T09:50:16;4.18;83.38
66582;SHT31;53438;48.898;2.308;2022-12-07T09:52:43;4.26;83.30
66582;SHT31;53438;48.898;2.308;2022-12-07T09:55:19;4.34;83.18
66582;SHT31;53438;48.898;2.308;2022-12-07T09:57:45;4.41;83.05
66582;SHT31;53438;48.898;2.308;2022-12-07T10:00:21;4.49;82.94
66582;SHT31;53438;48.898;2.308;2022-12-07T10:02:55;4.17;82.27
66582;SHT31;53438;48.898;2.308;2022-12-07T10:05:30;4.08;82.95
66582;SHT31;53438;48.898;2.308;2022-12-07T10:07:57;4.11;83.05
66582;SHT31;53438;48.898;2.308;2022-12-07T10:10:24;4.08;83.18
66582;SHT31;53438;48.898;2.308;2022-12-07T10:13:04;4.15;83.35
66582;SHT31;53438;48.898;2.308;2022-12-07T10:15:43;4.11;83.27
66582;SHT31;53438;48.898;2.308;2022-12-07T10:18:29;3.97;83.34
66582;SHT31;53438;48.898;2.308;2022-12-07T10:21:14;4.11;83.40
66582;SHT31;53438;48.898;2.308;2022-12-07T10:26:40;4.19;82.77
66582;SHT31;53438;48.898;2.308;2022-12-07T10:29:28;4.34;82.75
66582;SHT31;53438;48.898;2.308;2022-12-07T10:34:36;4.36;82.74
66582;SHT31;53438;48.898;2.308;2022-12-07T10:37:21;4.19;82.75
66582;SHT31;53438;48.898;2.308;2022-12-07T10:39:55;4.25;82.85
66582;SHT31;53438;48.898;2.308;2022-12-07T10:42:26;4.25;82.73
66582;SHT31;53438;48.898;2.308;2022-12-07T10:45:14;4.46;82.82
66582;SHT31;53438;48.898;2.308;2022-12-07T10:48:12;4.52;82.63
66582;SHT31;53438;48.898;2.308;2022-12-07T10:53:44;4.44;82.55
66582;SHT31;53438;48.898;2.308;2022-12-07T11:04:20;4.76;82.18
66582;SHT31;53438;48.898;2.308;2022-12-07T11:07:06;4.88;81.95
66582;SHT31;53438;48.898;2.308;2022-12-07T11:09:57;4.94;81.87
66582;SHT31;53438;48.898;2.308;2022-12-07T11:12:37;4.94;81.61
66582;SHT31;53438;48.898;2.308;2022-12-07T11:15:18;5.01;81.70
66582;SHT31;53438;48.898;2.308;2022-12-07T11:18:00;5.03;81.83
66582;SHT31;53438;48.898;2.308;2022-12-07T11:26:04;5.08;81.95
66582;SHT31;53438;48.898;2.308;2022-12-07T11:32:02;5.24;81.75
66582;SHT31;53438;48.898;2.308;2022-12-07T11:37:20;5.39;82.03
66582;SHT31;53438;48.898;2.308;2022-12-07T11:39:51;5.42;81.47
66582;SHT31;53438;48.898;2.308;2022-12-07T11:42:37;5.47;81.57
66582;SHT31;53438;48.898;2.308;2022-12-07T11:45:25;5.49;81.63
66582;SHT31;53438;48.898;2.308;2022-12-07T11:48:02;5.60;81.13
66582;SHT31;53438;48.898;2.308;2022-12-07T11:50:43;5.60;81.28
66582;SHT31;53438;48.898;2.308;2022-12-07T11:53:27;5.66;81.17
66582;SHT31;53438;48.898;2.308;2022-12-07T11:56:14;5.60;80.86
66582;SHT31;53438;48.898;2.308;2022-12-07T11:58:51;5.79;80.62
66582;SHT31;53438;48.898;2.308;2022-12-07T12:12:18;6.06;79.80
66582;SHT31;53438;48.898;2.308;2022-12-07T12:15:02;6.00;79.78
66582;SHT31;53438;48.898;2.308;2022-12-07T12:20:32;5.90;79.95
66582;SHT31;53438;48.898;2.308;2022-12-07T12:23:17;6.00;79.95
66582;SHT31;53438;48.898;2.308;2022-12-07T12:26:20;6.09;79.76
66582;SHT31;53438;48.898;2.308;2022-12-07T12:28:54;6.23;79.82
66582;SHT31;53438;48.898;2.308;2022-12-07T12:33:53;6.16;79.14
66582;SHT31;53438;48.898;2.308;2022-12-07T12:36:20;6.23;79.36
66582;SHT31;53438;48.898;2.308;2022-12-07T12:47:00;6.40;78.63
66582;SHT31;53438;48.898;2.308;2022-12-07T12:49:36;6.38;78.71
66582;SHT31;53438;48.898;2.308;2022-12-07T12:55:00;6.52;78.25
66582;SHT31;53438;48.898;2.308;2022-12-07T12:57:28;6.48;78.53
66582;SHT31;53438;48.898;2.308;2022-12-07T13:02:33;6.45;78.37
66582;SHT31;53438;48.898;2.308;2022-12-07T13:15:50;6.69;77.64
66582;SHT31;53438;48.898;2.308;2022-12-07T13:23:37;6.58;77.20
66582;SHT31;53438;48.898;2.308;2022-12-07T13:26:27;6.57;77.12
66582;SHT31;53438;48.898;2.308;2022-12-07T13:31:49;6.61;77.44
66582;SHT31;53438;48.898;2.308;2022-12-07T13:34:30;6.57;76.95
66582;SHT31;53438;48.898;2.308;2022-12-07T13:36:56;6.59;77.20
66582;SHT31;53438;48.898;2.308;2022-12-07T13:39:25;6.71;77.22
66582;SHT31;53438;48.898;2.308;2022-12-07T13:41:57;6.61;77.32
66582;SHT31;53438;48.898;2.308;2022-12-07T13:44:25;6.59;77.62
66582;SHT31;53438;48.898;2.308;2022-12-07T13:49:31;6.59;77.48
66582;SHT31;53438;48.898;2.308;2022-12-07T13:57:34;6.64;77.29
66582;SHT31;53438;48.898;2.308;2022-12-07T14:00:04;6.59;77.39
66582;SHT31;53438;48.898;2.308;2022-12-07T14:02:32;6.59;77.23
66582;SHT31;53438;48.898;2.308;2022-12-07T14:05:24;6.75;77.05
66582;SHT31;53438;48.898;2.308;2022-12-07T14:08:01;6.74;76.71
66582;SHT31;53438;48.898;2.308;2022-12-07T14:10:35;6.81;76.44
66582;SHT31;53438;48.898;2.308;2022-12-07T14:13:03;6.82;76.51
66582;SHT31;53438;48.898;2.308;2022-12-07T14:15:50;6.85;76.64
66582;SHT31;53438;48.898;2.308;2022-12-07T14:18:38;6.84;76.78
66582;SHT31;53438;48.898;2.308;2022-12-07T14:21:05;6.89;76.84
66582;SHT31;53438;48.898;2.308;2022-12-07T14:23:30;6.86;76.40
66582;SHT31;53438;48.898;2.308;2022-12-07T14:26:13;6.85;76.44
66582;SHT31;53438;48.898;2.308;2022-12-07T14:28:40;6.78;76.38
66582;SHT31;53438;48.898;2.308;2022-12-07T14:31:21;6.79;76.51
66582;SHT31;53438;48.898;2.308;2022-12-07T14:33:48;6.86;76.60
66582;SHT31;53438;48.898;2.308;2022-12-07T14:36:14;6.89;76.62
66582;SHT31;53438;48.898;2.308;2022-12-07T14:38:40;6.91;76.90
66582;SHT31;53438;48.898;2.308;2022-12-07T14:41:12;6.82;76.50
66582;SHT31;53438;48.898;2.308;2022-12-07T14:43:58;6.89;76.56
66582;SHT31;53438;48.898;2.308;2022-12-07T14:46:23;6.99;76.34
66582;SHT31;53438;48.898;2.308;2022-12-07T14:48:49;6.85;76.10
66582;SHT31;53438;48.898;2.308;2022-12-07T14:51:15;6.86;76.47
66582;SHT31;53438;48.898;2.308;2022-12-07T14:53:45;6.93;76.35
66582;SHT31;53438;48.898;2.308;2022-12-07T14:56:11;6.84;76.35
66582;SHT31;53438;48.898;2.308;2022-12-07T14:58:36;6.95;76.53
66582;SHT31;53438;48.898;2.308;2022-12-07T15:01:02;6.79;76.25
66582;SHT31;53438;48.898;2.308;2022-12-07T15:03:28;6.78;76.47
66582;SHT31;53438;48.898;2.308;2022-12-07T15:05:54;6.74;76.60
66582;SHT31;53438;48.898;2.308;2022-12-07T15:08:20;6.68;76.62
66582;SHT31;53438;48.898;2.308;2022-12-07T15:10:46;6.68;76.74
66582;SHT31;53438;48.898;2.308;2022-12-07T15:13:11;6.68;76.85
66582;SHT31;53438;48.898;2.308;2022-12-07T15:15:55;6.61;76.98
66582;SHT31;53438;48.898;2.308;2022-12-07T15:18:21;6.67;77.13
66582;SHT31;53438;48.898;2.308;2022-12-07T15:20:47;6.63;77.06
66582;SHT31;53438;48.898;2.308;2022-12-07T15:23:14;6.57;77.18
66582;SHT31;53438;48.898;2.308;2022-12-07T15:25:44;6.57;77.34
66582;SHT31;53438;48.898;2.308;2022-12-07T15:28:09;6.64;77.37
66582;SHT31;53438;48.898;2.308;2022-12-07T15:30:37;6.59;77.52
66582;SHT31;53438;48.898;2.308;2022-12-07T15:33:02;6.59;77.52
66582;SHT31;53438;48.898;2.308;2022-12-07T15:35:28;6.57;77.72
66582;SHT31;53438;48.898;2.308;2022-12-07T15:37:53;6.64;77.71
66582;SHT31;53438;48.898;2.308;2022-12-07T15:40:18;6.61;77.82
66582;SHT31;53438;48.898;2.308;2022-12-07T15:42:44;6.57;77.71
66582;SHT31;53438;48.898;2.308;2022-12-07T15:45:10;6.49;77.89
66582;SHT31;53438;48.898;2.308;2022-12-07T15:47:43;6.49;78.02
66582;SHT31;53438;48.898;2.308;2022-12-07T15:50:12;6.47;78.32
66582;SHT31;53438;48.898;2.308;2022-12-07T15:52:38;6.48;78.33
66582;SHT31;53438;48.898;2.308;2022-12-07T15:55:04;6.42;78.48
66582;SHT31;53438;48.898;2.308;2022-12-07T15:57:30;6.48;78.57
66582;SHT31;53438;48.898;2.308;2022-12-07T15:59:56;6.48;78.54
66582;SHT31;53438;48.898;2.308;2022-12-07T16:02:22;6.45;78.50
66582;SHT31;53438;48.898;2.308;2022-12-07T16:04:48;6.42;78.64
66582;SHT31;53438;48.898;2.308;2022-12-07T16:07:14;6.42;78.63
66582;SHT31;53438;48.898;2.308;2022-12-07T16:09:43;6.33;78.83
66582;SHT31;53438;48.898;2.308;2022-12-07T16:12:10;6.26;79.08
66582;SHT31;53438;48.898;2.308;2022-12-07T16:14:36;6.20;79.08
66582;SHT31;53438;48.898;2.308;2022-12-07T16:17:03;6.17;79.30
66582;SHT31;53438;48.898;2.308;2022-12-07T16:19:30;6.24;79.34
66582;SHT31;53438;48.898;2.308;2022-12-07T16:21:55;6.18;79.41
66582;SHT31;53438;48.898;2.308;2022-12-07T16:24:21;6.18;79.49
66582;SHT31;53438;48.898;2.308;2022-12-07T16:26:47;6.23;79.30
66582;SHT31;53438;48.898;2.308;2022-12-07T16:29:13;6.18;79.44
66582;SHT31;53438;48.898;2.308;2022-12-07T16:31:39;6.17;79.34
66582;SHT31;53438;48.898;2.308;2022-12-07T16:34:05;6.14;79.48
66582;SHT31;53438;48.898;2.308;2022-12-07T16:36:31;6.17;79.33
66582;SHT31;53438;48.898;2.308;2022-12-07T16:38:58;6.13;79.01
66582;SHT31;53438;48.898;2.308;2022-12-07T16:41:24;6.10;78.92
66582;SHT31;53438;48.898;2.308;2022-12-07T16:43:49;6.09;79.29
66582;SHT31;53438;48.898;2.308;2022-12-07T16:46:14;6.07;79.07
66582;SHT31;53438;48.898;2.308;2022-12-07T16:48:41;6.13;79.22
66582;SHT31;53438;48.898;2.308;2022-12-07T16:51:09;6.14;79.22
66582;SHT31;53438;48.898;2.308;2022-12-07T16:53:36;6.11;79.28
66582;SHT31;53438;48.898;2.308;2022-12-07T16:56:04;6.06;79.31
66582;SHT31;53438;48.898;2.308;2022-12-07T16:58:30;6.16;79.43
66582;SHT31;53438;48.898;2.308;2022-12-07T17:00:56;6.20;79.44
66582;SHT31;53438;48.898;2.308;2022-12-07T17:03:21;6.21;79.01
66582;SHT31;53438;48.898;2.308;2022-12-07T17:05:47;6.17;78.78
66582;SHT31;53438;48.898;2.308;2022-12-07T17:08:13;6.18;78.74
66582;SHT31;53438;48.898;2.308;2022-12-07T17:10:41;6.14;78.32
66582;SHT31;53438;48.898;2.308;2022-12-07T17:13:07;6.16;78.31
66582;SHT31;53438;48.898;2.308;2022-12-07T17:15:59;6.09;78.40
66582;SHT31;53438;48.898;2.308;2022-12-07T17:18:27;6.16;78.44
66582;SHT31;53438;48.898;2.308;2022-12-07T17:20:53;6.14;78.55
66582;SHT31;53438;48.898;2.308;2022-12-07T17:23:18;6.05;79.06
66582;SHT31;53438;48.898;2.308;2022-12-07T17:25:45;6.07;79.15
66582;SHT31;53438;48.898;2.308;2022-12-07T17:28:10;6.07;79.04
66582;SHT31;53438;48.898;2.308;2022-12-07T17:30:37;6.00;79.12
66582;SHT31;53438;48.898;2.308;2022-12-07T17:33:02;5.86;79.44
66582;SHT31;53438;48.898;2.308;2022-12-07T17:35:28;5.90;79.44
66582;SHT31;53438;48.898;2.308;2022-12-07T17:37:53;5.90;79.49
66582;SHT31;53438;48.898;2.308;2022-12-07T17:40:20;5.95;79.39
66582;SHT31;53438;48.898;2.308;2022-12-07T17:42:45;5.95;79.46
66582;SHT31;53438;48.898;2.308;2022-12-07T17:45:16;5.95;79.45
66582;SHT31;53438;48.898;2.308;2022-12-07T17:47:42;5.77;79.78
66582;SHT31;53438;48.898;2.308;2022-12-07T17:50:09;5.70;80.15
66582;SHT31;53438;48.898;2.308;2022-12-07T17:52:37;5.58;80.08
66582;SHT31;53438;48.898;2.308;2022-12-07T17:55:21;5.56;80.29
66582;SHT31;53438;48.898;2.308;2022-12-07T17:57:47;5.52;80.27
66582;SHT31;53438;48.898;2.308;2022-12-07T18:00:13;5.54;80.10
66582;SHT31;53438;48.898;2.308;2022-12-07T18:02:39;5.51;80.27
66582;SHT31;53438;48.898;2.308;2022-12-07T18:05:05;5.51;80.18
66582;SHT31;53438;48.898;2.308;2022-12-07T18:07:30;5.59;79.96
66582;SHT31;53438;48.898;2.308;2022-12-07T18:09:56;5.52;79.80
66582;SHT31;53438;48.898;2.308;2022-12-07T18:12:21;5.51;79.79
66582;SHT31;53438;48.898;2.308;2022-12-07T18:14:47;5.49;79.72
66582;SHT31;53438;48.898;2.308;2022-12-07T18:17:14;5.54;79.68
66582;SHT31;53438;48.898;2.308;2022-12-07T18:19:39;5.54;79.60
66582;SHT31;53438;48.898;2.308;2022-12-07T18:22:05;5.58;79.50
66582;SHT31;53438;48.898;2.308;2022-12-07T18:24:30;5.56;79.35
66582;SHT31;53438;48.898;2.308;2022-12-07T18:26:56;5.56;79.49
66582;SHT31;53438;48.898;2.308;2022-12-07T18:29:21;5.54;79.39
66582;SHT31;53438;48.898;2.308;2022-12-07T18:31:47;5.58;79.44
66582;SHT31;53438;48.898;2.308;2022-12-07T18:34:15;5.44;79.51
66582;SHT31;53438;48.898;2.308;2022-12-07T18:36:43;5.44;79.46
66582;SHT31;53438;48.898;2.308;2022-12-07T18:39:10;5.49;79.47
66582;SHT31;53438;48.898;2.308;2022-12-07T18:41:37;5.54;79.32
66582;SHT31;53438;48.898;2.308;2022-12-07T18:44:04;5.58;79.17
66582;SHT31;53438;48.898;2.308;2022-12-07T18:46:29;5.62;78.99
66582;SHT31;53438;48.898;2.308;2022-12-07T18:48:55;5.69;78.39
66582;SHT31;53438;48.898;2.308;2022-12-07T18:51:24;5.65;78.31
66582;SHT31;53438;48.898;2.308;2022-12-07T18:53:50;5.72;77.88
66582;SHT31;53438;48.898;2.308;2022-12-07T18:56:18;5.73;77.93
66582;SHT31;53438;48.898;2.308;2022-12-07T18:58:55;5.72;78.07
66582;SHT31;53438;48.898;2.308;2022-12-07T19:01:41;5.70;78.23
66582;SHT31;53438;48.898;2.308;2022-12-07T19:04:07;5.69;78.24
66582;SHT31;53438;48.898;2.308;2022-12-07T19:06:33;5.69;78.25
66582;SHT31;53438;48.898;2.308;2022-12-07T19:09:00;5.68;78.23
66582;SHT31;53438;48.898;2.308;2022-12-07T19:11:30;5.54;78.44
66582;SHT31;53438;48.898;2.308;2022-12-07T19:16:45;5.41;78.89
66582;SHT31;53438;48.898;2.308;2022-12-07T19:19:10;5.41;79.01
66582;SHT31;53438;48.898;2.308;2022-12-07T19:21:38;5.42;78.88
66582;SHT31;53438;48.898;2.308;2022-12-07T19:24:05;5.31;79.44
66582;SHT31;53438;48.898;2.308;2022-12-07T19:26:31;5.32;79.28
66582;SHT31;53438;48.898;2.308;2022-12-07T19:28:57;5.30;79.44
66582;SHT31;53438;48.898;2.308;2022-12-07T19:31:22;5.28;79.11
66582;SHT31;53438;48.898;2.308;2022-12-07T19:33:48;5.39;79.22
66582;SHT31;53438;48.898;2.308;2022-12-07T19:36:13;5.37;78.93
66582;SHT31;53438;48.898;2.308;2022-12-07T19:38:39;5.39;79.07
66582;SHT31;53438;48.898;2.308;2022-12-07T19:41:09;5.34;78.87
66582;SHT31;53438;48.898;2.308;2022-12-07T19:43:54;5.41;78.90
66582;SHT31;53438;48.898;2.308;2022-12-07T19:46:19;5.41;78.53
66582;SHT31;53438;48.898;2.308;2022-12-07T19:48:45;5.31;78.86
66582;SHT31;53438;48.898;2.308;2022-12-07T19:51:11;5.47;78.84
66582;SHT31;53438;48.898;2.308;2022-12-07T19:53:36;5.44;78.32
66582;SHT31;53438;48.898;2.308;2022-12-07T19:56:02;5.47;78.53
66582;SHT31;53438;48.898;2.308;2022-12-07T19:58:27;5.55;78.36
66582;SHT31;53438;48.898;2.308;2022-12-07T20:00:53;5.55;78.24
66582;SHT31;53438;48.898;2.308;2022-12-07T20:03:18;5.59;78.15
66582;SHT31;53438;48.898;2.308;2022-12-07T20:05:45;5.58;77.88
66582;SHT31;53438;48.898;2.308;2022-12-07T20:08:12;5.63;77.94
66582;SHT31;53438;48.898;2.308;2022-12-07T20:10:39;5.62;77.97
66582;SHT31;53438;48.898;2.308;2022-12-07T20:13:05;5.59;77.91
66582;SHT31;53438;48.898;2.308;2022-12-07T20:15:49;5.63;77.95
66582;SHT31;53438;48.898;2.308;2022-12-07T20:18:14;5.63;77.89
66582;SHT31;53438;48.898;2.308;2022-12-07T20:20:40;5.60;78.05
66582;SHT31;53438;48.898;2.308;2022-12-07T20:23:05;5.58;78.21
66582;SHT31;53438;48.898;2.308;2022-12-07T20:25:35;5.63;78.05